sensor_id;sensor_type;location;lat;lon;timestamp;temperature;humidity
774;DHT22;370;48.810;9.150;2023-02-11T00:01:51;-2.10;16.80
774;DHT22;370;48.810;9.150;2023-02-11T00:04:18;-2.00;17.60
774;DHT22;370;48.810;9.150;2023-02-11T00:06:44;-2.00;17.20
774;DHT22;370;48.810;9.150;2023-02-11T00:09:12;-2.00;16.50
774;DHT22;370;48.810;9.150;2023-02-11T00:11:39;-2.00;16.60
774;DHT22;370;48.810;9.150;2023-02-11T00:14:06;-2.00;16.30
774;DHT22;370;48.810;9.150;2023-02-11T00:16:33;-2.00;16.60
774;DHT22;370;48.810;9.150;2023-02-11T00:19:01;-2.00;16.00
774;DHT22;370;48.810;9.150;2023-02-11T00:21:28;-2.10;16.80
774;DHT22;370;48.810;9.150;2023-02-11T00:23:56;-2.00;16.70
774;DHT22;370;48.810;9.150;2023-02-11T00:26:26;-2.00;16.70
774;DHT22;370;48.810;9.150;2023-02-11T00:28:53;-2.00;16.80
774;DHT22;370;48.810;9.150;2023-02-11T00:31:22;-2.00;16.80
774;DHT22;370;48.810;9.150;2023-02-11T00:33:49;-2.00;16.50
774;DHT22;370;48.810;9.150;2023-02-11T00:36:18;-2.00;16.40
774;DHT22;370;48.810;9.150;2023-02-11T00:38:45;-2.10;16.10
774;DHT22;370;48.810;9.150;2023-02-11T00:41:13;-2.10;17.40
774;DHT22;370;48.810;9.150;2023-02-11T00:43:41;-2.10;16.90
774;DHT22;370;48.810;9.150;2023-02-11T00:46:09;-2.10;16.80
774;DHT22;370;48.810;9.150;2023-02-11T00:48:36;-2.10;16.80
774;DHT22;370;48.810;9.150;2023-02-11T00:51:03;-2.10;16.60
774;DHT22;370;48.810;9.150;2023-02-11T00:53:30;-2.10;16.40
774;DHT22;370;48.810;9.150;2023-02-11T00:55:57;-2.10;16.40
774;DHT22;370;48.810;9.150;2023-02-11T00:58:24;-2.10;16.40
774;DHT22;370;48.810;9.150;2023-02-11T01:00:52;-2.10;16.60
774;DHT22;370;48.810;9.150;2023-02-11T01:03:19;-2.10;16.00
774;DHT22;370;48.810;9.150;2023-02-11T01:05:45;-2.20;16.10
774;DHT22;370;48.810;9.150;2023-02-11T01:08:12;-2.10;16.40
774;DHT22;370;48.810;9.150;2023-02-11T01:10:39;-2.10;16.30
774;DHT22;370;48.810;9.150;2023-02-11T01:13:06;-2.20;16.10
774;DHT22;370;48.810;9.150;2023-02-11T01:15:33;-2.10;16.80
774;DHT22;370;48.810;9.150;2023-02-11T01:18:01;-2.10;16.80
774;DHT22;370;48.810;9.150;2023-02-11T01:20:29;-2.10;16.90
774;DHT22;370;48.810;9.150;2023-02-11T01:22:56;-2.30;16.00
774;DHT22;370;48.810;9.150;2023-02-11T01:25:23;-2.20;17.70
774;DHT22;370;48.810;9.150;2023-02-11T01:27:50;-2.20;17.30
774;DHT22;370;48.810;9.150;2023-02-11T01:30:16;-2.20;16.90
774;DHT22;370;48.810;9.150;2023-02-11T01:32:43;-2.20;16.60
774;DHT22;370;48.810;9.150;2023-02-11T01:35:11;-2.30;16.60
774;DHT22;370;48.810;9.150;2023-02-11T01:37:38;-2.30;16.80
774;DHT22;370;48.810;9.150;2023-02-11T01:40:11;-2.30;17.30
774;DHT22;370;48.810;9.150;2023-02-11T01:42:38;-2.30;16.40
774;DHT22;370;48.810;9.150;2023-02-11T01:45:41;-2.20;16.40
774;DHT22;370;48.810;9.150;2023-02-11T01:48:16;-2.30;16.20
774;DHT22;370;48.810;9.150;2023-02-11T01:50:47;-2.20;16.50
774;DHT22;370;48.810;9.150;2023-02-11T01:53:16;-2.30;16.30
774;DHT22;370;48.810;9.150;2023-02-11T01:56:02;-2.20;16.60
774;DHT22;370;48.810;9.150;2023-02-11T01:58:48;-2.20;16.60
774;DHT22;370;48.810;9.150;2023-02-11T02:01:19;-2.30;16.30
774;DHT22;370;48.810;9.150;2023-02-11T02:03:51;-2.30;16.80
774;DHT22;370;48.810;9.150;2023-02-11T02:06:27;-2.30;17.30
774;DHT22;370;48.810;9.150;2023-02-11T02:09:01;-2.30;17.30
774;DHT22;370;48.810;9.150;2023-02-11T02:11:29;-2.20;17.50
774;DHT22;370;48.810;9.150;2023-02-11T02:13:56;-2.20;17.70
774;DHT22;370;48.810;9.150;2023-02-11T02:16:28;-2.20;17.30
774;DHT22;370;48.810;9.150;2023-02-11T02:19:04;-2.20;17.50
774;DHT22;370;48.810;9.150;2023-02-11T02:24:54;-2.20;18.00
774;DHT22;370;48.810;9.150;2023-02-11T02:27:43;-2.10;17.80
774;DHT22;370;48.810;9.150;2023-02-11T02:33:23;-2.00;17.60
774;DHT22;370;48.810;9.150;2023-02-11T02:35:59;-2.00;17.20
774;DHT22;370;48.810;9.150;2023-02-11T02:38:31;-2.00;16.10
774;DHT22;370;48.810;9.150;2023-02-11T02:41:02;-2.00;16.60
774;DHT22;370;48.810;9.150;2023-02-11T02:43:29;-1.90;16.90
774;DHT22;370;48.810;9.150;2023-02-11T02:46:09;-1.90;15.80
774;DHT22;370;48.810;9.150;2023-02-11T02:48:37;-1.80;15.50
774;DHT22;370;48.810;9.150;2023-02-11T02:51:10;-1.80;15.50
774;DHT22;370;48.810;9.150;2023-02-11T02:53:46;-1.70;15.60
774;DHT22;370;48.810;9.150;2023-02-11T02:56:22;-1.70;15.10
774;DHT22;370;48.810;9.150;2023-02-11T02:59:17;-1.70;14.90
774;DHT22;370;48.810;9.150;2023-02-11T03:01:50;-1.70;14.60
774;DHT22;370;48.810;9.150;2023-02-11T03:04:27;-1.80;14.60
774;DHT22;370;48.810;9.150;2023-02-11T03:07:00;-1.80;15.50
774;DHT22;370;48.810;9.150;2023-02-11T03:09:31;-1.80;15.10
774;DHT22;370;48.810;9.150;2023-02-11T03:12:02;-1.70;15.00
774;DHT22;370;48.810;9.150;2023-02-11T03:14:31;-1.60;14.50
774;DHT22;370;48.810;9.150;2023-02-11T03:17:00;-1.70;13.80
774;DHT22;370;48.810;9.150;2023-02-11T03:19:33;-1.60;13.80
774;DHT22;370;48.810;9.150;2023-02-11T03:22:06;-1.60;13.70
774;DHT22;370;48.810;9.150;2023-02-11T03:24:35;-1.60;14.10
774;DHT22;370;48.810;9.150;2023-02-11T03:27:08;-1.70;12.90
774;DHT22;370;48.810;9.150;2023-02-11T03:29:39;-1.70;13.60
774;DHT22;370;48.810;9.150;2023-02-11T03:32:12;-1.70;14.10
774;DHT22;370;48.810;9.150;2023-02-11T03:34:45;-1.70;13.60
774;DHT22;370;48.810;9.150;2023-02-11T03:37:16;-1.70;13.30
774;DHT22;370;48.810;9.150;2023-02-11T03:39:46;-1.70;13.30
774;DHT22;370;48.810;9.150;2023-02-11T03:42:15;-1.70;13.30
774;DHT22;370;48.810;9.150;2023-02-11T03:44:47;-1.70;13.50
774;DHT22;370;48.810;9.150;2023-02-11T03:47:18;-1.70;13.30
774;DHT22;370;48.810;9.150;2023-02-11T03:49:49;-1.70;13.30
774;DHT22;370;48.810;9.150;2023-02-11T03:52:17;-1.70;13.30
774;DHT22;370;48.810;9.150;2023-02-11T03:54:48;-1.70;13.30
774;DHT22;370;48.810;9.150;2023-02-11T03:57:16;-1.70;13.50
774;DHT22;370;48.810;9.150;2023-02-11T03:59:51;-1.60;14.20
774;DHT22;370;48.810;9.150;2023-02-11T04:02:18;-1.50;14.20
774;DHT22;370;48.810;9.150;2023-02-11T04:04:46;-1.50;15.30
774;DHT22;370;48.810;9.150;2023-02-11T04:07:14;-1.40;14.40
774;DHT22;370;48.810;9.150;2023-02-11T04:09:41;-1.40;13.90
774;DHT22;370;48.810;9.150;2023-02-11T04:12:07;-1.30;14.00
774;DHT22;370;48.810;9.150;2023-02-11T04:14:34;-1.10;13.10
774;DHT22;370;48.810;9.150;2023-02-11T04:17:02;-1.00;12.50
774;DHT22;370;48.810;9.150;2023-02-11T04:19:28;-0.80;12.20
774;DHT22;370;48.810;9.150;2023-02-11T04:21:55;-0.70;11.60
774;DHT22;370;48.810;9.150;2023-02-11T04:24:23;-0.50;10.90
774;DHT22;370;48.810;9.150;2023-02-11T04:26:50;-0.40;10.40
774;DHT22;370;48.810;9.150;2023-02-11T04:29:17;-0.30;9.90
774;DHT22;370;48.810;9.150;2023-02-11T04:31:44;-0.20;8.90
774;DHT22;370;48.810;9.150;2023-02-11T04:34:10;-0.20;8.00
774;DHT22;370;48.810;9.150;2023-02-11T04:36:37;-0.20;8.00
774;DHT22;370;48.810;9.150;2023-02-11T04:39:04;-0.20;8.10
774;DHT22;370;48.810;9.150;2023-02-11T04:41:33;-0.10;8.10
774;DHT22;370;48.810;9.150;2023-02-11T04:43:59;0.10;8.20
774;DHT22;370;48.810;9.150;2023-02-11T04:46:26;0.10;7.30
774;DHT22;370;48.810;9.150;2023-02-11T04:48:53;0.10;7.20
774;DHT22;370;48.810;9.150;2023-02-11T04:51:20;0.20;6.30
774;DHT22;370;48.810;9.150;2023-02-11T04:53:46;0.30;6.20
774;DHT22;370;48.810;9.150;2023-02-11T04:56:13;0.40;5.60
774;DHT22;370;48.810;9.150;2023-02-11T04:58:41;0.50;5.00
774;DHT22;370;48.810;9.150;2023-02-11T05:01:09;0.50;5.80
774;DHT22;370;48.810;9.150;2023-02-11T05:03:37;0.30;5.30
774;DHT22;370;48.810;9.150;2023-02-11T05:06:05;0.40;6.30
774;DHT22;370;48.810;9.150;2023-02-11T05:08:32;0.50;6.10
774;DHT22;370;48.810;9.150;2023-02-11T05:10:59;0.60;5.60
774;DHT22;370;48.810;9.150;2023-02-11T05:13:26;0.70;5.40
774;DHT22;370;48.810;9.150;2023-02-11T05:15:54;0.80;5.00
774;DHT22;370;48.810;9.150;2023-02-11T05:18:22;0.90;4.60
774;DHT22;370;48.810;9.150;2023-02-11T05:20:48;1.00;3.50
774;DHT22;370;48.810;9.150;2023-02-11T05:23:15;0.90;3.10
774;DHT22;370;48.810;9.150;2023-02-11T05:25:42;0.90;4.10
774;DHT22;370;48.810;9.150;2023-02-11T05:28:09;1.00;3.80
774;DHT22;370;48.810;9.150;2023-02-11T05:30:35;1.00;3.30
774;DHT22;370;48.810;9.150;2023-02-11T05:33:04;1.10;3.30
774;DHT22;370;48.810;9.150;2023-02-11T05:35:30;1.10;3.30
774;DHT22;370;48.810;9.150;2023-02-11T05:37:57;1.10;3.30
774;DHT22;370;48.810;9.150;2023-02-11T05:40:24;1.20;2.80
774;DHT22;370;48.810;9.150;2023-02-11T05:42:51;1.10;3.70
774;DHT22;370;48.810;9.150;2023-02-11T05:45:17;1.20;3.50
774;DHT22;370;48.810;9.150;2023-02-11T05:47:44;1.20;3.30
774;DHT22;370;48.810;9.150;2023-02-11T05:50:12;1.20;3.10
774;DHT22;370;48.810;9.150;2023-02-11T05:52:39;1.30;3.00
774;DHT22;370;48.810;9.150;2023-02-11T05:55:06;1.30;2.80
774;DHT22;370;48.810;9.150;2023-02-11T05:57:33;1.40;2.50
774;DHT22;370;48.810;9.150;2023-02-11T06:00:00;1.30;2.40
774;DHT22;370;48.810;9.150;2023-02-11T06:02:26;1.50;2.50
774;DHT22;370;48.810;9.150;2023-02-11T06:04:53;1.50;2.20
774;DHT22;370;48.810;9.150;2023-02-11T06:07:21;1.50;2.80
774;DHT22;370;48.810;9.150;2023-02-11T06:09:48;1.60;2.50
774;DHT22;370;48.810;9.150;2023-02-11T06:12:15;1.70;2.10
774;DHT22;370;48.810;9.150;2023-02-11T06:14:42;1.80;2.10
774;DHT22;370;48.810;9.150;2023-02-11T06:17:08;1.80;1.60
774;DHT22;370;48.810;9.150;2023-02-11T06:19:35;1.90;1.30
774;DHT22;370;48.810;9.150;2023-02-11T06:22:02;1.90;1.00
774;DHT22;370;48.810;9.150;2023-02-11T06:24:30;1.90;1.00
774;DHT22;370;48.810;9.150;2023-02-11T06:26:57;2.00;1.00
774;DHT22;370;48.810;9.150;2023-02-11T06:29:24;2.10;1.00
774;DHT22;370;48.810;9.150;2023-02-11T06:31:50;2.10;1.00
774;DHT22;370;48.810;9.150;2023-02-11T06:34:17;2.10;1.00
774;DHT22;370;48.810;9.150;2023-02-11T06:36:44;2.10;1.00
774;DHT22;370;48.810;9.150;2023-02-11T06:39:12;2.10;1.00
774;DHT22;370;48.810;9.150;2023-02-11T06:41:40;2.20;1.00
774;DHT22;370;48.810;9.150;2023-02-11T06:44:07;2.20;1.00
774;DHT22;370;48.810;9.150;2023-02-11T06:46:34;2.20;1.00
774;DHT22;370;48.810;9.150;2023-02-11T06:49:00;2.10;1.00
774;DHT22;370;48.810;9.150;2023-02-11T06:51:27;2.10;1.00
774;DHT22;370;48.810;9.150;2023-02-11T06:53:54;2.20;1.00
774;DHT22;370;48.810;9.150;2023-02-11T06:56:22;2.10;1.00
774;DHT22;370;48.810;9.150;2023-02-11T06:58:53;2.20;1.00
774;DHT22;370;48.810;9.150;2023-02-11T07:01:22;2.20;1.00
774;DHT22;370;48.810;9.150;2023-02-11T07:03:49;2.10;1.00
774;DHT22;370;48.810;9.150;2023-02-11T07:06:18;2.20;1.00
774;DHT22;370;48.810;9.150;2023-02-11T07:08:47;2.30;1.00
774;DHT22;370;48.810;9.150;2023-02-11T07:11:16;2.30;1.00
774;DHT22;370;48.810;9.150;2023-02-11T07:13:45;2.30;1.00
774;DHT22;370;48.810;9.150;2023-02-11T07:16:15;2.40;1.00
774;DHT22;370;48.810;9.150;2023-02-11T07:18:42;2.40;1.00
774;DHT22;370;48.810;9.150;2023-02-11T07:21:10;2.20;1.00
774;DHT22;370;48.810;9.150;2023-02-11T07:23:38;2.40;1.00
774;DHT22;370;48.810;9.150;2023-02-11T07:26:06;2.50;1.00
774;DHT22;370;48.810;9.150;2023-02-11T07:28:35;2.70;1.00
774;DHT22;370;48.810;9.150;2023-02-11T07:31:05;2.80;1.00
774;DHT22;370;48.810;9.150;2023-02-11T07:33:33;2.90;1.00
774;DHT22;370;48.810;9.150;2023-02-11T07:36:00;3.00;1.00
774;DHT22;370;48.810;9.150;2023-02-11T07:38:27;3.10;1.00
774;DHT22;370;48.810;9.150;2023-02-11T07:40:54;3.10;1.00
774;DHT22;370;48.810;9.150;2023-02-11T07:43:20;3.30;1.00
774;DHT22;370;48.810;9.150;2023-02-11T07:45:47;3.40;1.00
774;DHT22;370;48.810;9.150;2023-02-11T07:48:14;3.60;1.00
774;DHT22;370;48.810;9.150;2023-02-11T07:50:42;3.70;1.00
774;DHT22;370;48.810;9.150;2023-02-11T07:53:09;3.80;1.00
774;DHT22;370;48.810;9.150;2023-02-11T07:55:35;3.80;1.00
774;DHT22;370;48.810;9.150;2023-02-11T07:58:02;4.00;1.00
774;DHT22;370;48.810;9.150;2023-02-11T08:00:29;4.10;1.00
774;DHT22;370;48.810;9.150;2023-02-11T08:02:56;4.30;1.00
774;DHT22;370;48.810;9.150;2023-02-11T08:05:23;4.20;1.00
774;DHT22;370;48.810;9.150;2023-02-11T08:07:51;4.30;1.00
774;DHT22;370;48.810;9.150;2023-02-11T08:10:19;4.40;1.00
774;DHT22;370;48.810;9.150;2023-02-11T08:12:46;4.50;1.00
774;DHT22;370;48.810;9.150;2023-02-11T08:15:13;4.50;1.00
774;DHT22;370;48.810;9.150;2023-02-11T08:17:40;4.70;1.00
774;DHT22;370;48.810;9.150;2023-02-11T08:20:07;4.90;1.00
774;DHT22;370;48.810;9.150;2023-02-11T08:22:34;5.10;1.00
774;DHT22;370;48.810;9.150;2023-02-11T08:25:02;5.40;1.00
774;DHT22;370;48.810;9.150;2023-02-11T08:27:29;5.60;1.00
774;DHT22;370;48.810;9.150;2023-02-11T08:29:56;5.50;1.00
774;DHT22;370;48.810;9.150;2023-02-11T08:32:24;5.80;1.00
774;DHT22;370;48.810;9.150;2023-02-11T08:34:51;5.90;1.00
774;DHT22;370;48.810;9.150;2023-02-11T08:37:18;6.20;1.00
774;DHT22;370;48.810;9.150;2023-02-11T08:39:45;6.50;1.00
774;DHT22;370;48.810;9.150;2023-02-11T08:42:14;6.40;1.00
774;DHT22;370;48.810;9.150;2023-02-11T08:44:42;6.60;1.00
774;DHT22;370;48.810;9.150;2023-02-11T08:47:09;6.80;1.00
774;DHT22;370;48.810;9.150;2023-02-11T08:49:36;7.00;1.00
774;DHT22;370;48.810;9.150;2023-02-11T08:52:03;7.10;1.00
774;DHT22;370;48.810;9.150;2023-02-11T08:54:31;7.20;1.00
774;DHT22;370;48.810;9.150;2023-02-11T08:56:57;7.50;1.00
774;DHT22;370;48.810;9.150;2023-02-11T08:59:28;7.80;1.00
774;DHT22;370;48.810;9.150;2023-02-11T09:01:54;8.70;1.00
774;DHT22;370;48.810;9.150;2023-02-11T09:04:22;10.80;1.00
774;DHT22;370;48.810;9.150;2023-02-11T09:06:49;12.20;1.00
774;DHT22;370;48.810;9.150;2023-02-11T09:09:17;12.30;1.00
774;DHT22;370;48.810;9.150;2023-02-11T09:11:44;13.40;1.00
774;DHT22;370;48.810;9.150;2023-02-11T09:14:16;15.50;1.00
774;DHT22;370;48.810;9.150;2023-02-11T09:16:45;16.80;1.00
774;DHT22;370;48.810;9.150;2023-02-11T09:19:12;17.00;1.00
774;DHT22;370;48.810;9.150;2023-02-11T09:21:39;17.10;1.00
774;DHT22;370;48.810;9.150;2023-02-11T09:24:06;18.40;1.00
774;DHT22;370;48.810;9.150;2023-02-11T09:26:34;20.00;1.00
774;DHT22;370;48.810;9.150;2023-02-11T09:29:03;21.60;1.00
774;DHT22;370;48.810;9.150;2023-02-11T09:31:32;23.10;1.00
774;DHT22;370;48.810;9.150;2023-02-11T09:34:01;24.30;1.00
774;DHT22;370;48.810;9.150;2023-02-11T09:36:30;24.60;1.00
774;DHT22;370;48.810;9.150;2023-02-11T09:38:59;24.90;1.00
774;DHT22;370;48.810;9.150;2023-02-11T09:41:34;25.70;1.00
774;DHT22;370;48.810;9.150;2023-02-11T09:44:06;27.00;1.00
774;DHT22;370;48.810;9.150;2023-02-11T09:46:35;28.00;1.00
774;DHT22;370;48.810;9.150;2023-02-11T09:49:05;28.50;1.00
774;DHT22;370;48.810;9.150;2023-02-11T09:51:37;28.60;1.00
774;DHT22;370;48.810;9.150;2023-02-11T09:54:10;28.80;1.00
774;DHT22;370;48.810;9.150;2023-02-11T09:56:38;28.50;1.00
774;DHT22;370;48.810;9.150;2023-02-11T09:59:09;29.00;1.00
774;DHT22;370;48.810;9.150;2023-02-11T10:01:40;29.90;1.00
774;DHT22;370;48.810;9.150;2023-02-11T10:04:14;30.60;1.00
774;DHT22;370;48.810;9.150;2023-02-11T10:06:48;30.30;1.00
774;DHT22;370;48.810;9.150;2023-02-11T10:09:35;29.30;1.00
774;DHT22;370;48.810;9.150;2023-02-11T10:12:18;28.40;1.00
774;DHT22;370;48.810;9.150;2023-02-11T10:15:01;27.50;1.00
774;DHT22;370;48.810;9.150;2023-02-11T10:17:37;27.20;1.00
774;DHT22;370;48.810;9.150;2023-02-11T10:20:20;27.50;1.00
774;DHT22;370;48.810;9.150;2023-02-11T10:22:52;27.60;1.00
774;DHT22;370;48.810;9.150;2023-02-11T10:25:22;29.00;1.00
774;DHT22;370;48.810;9.150;2023-02-11T10:27:50;29.90;1.00
774;DHT22;370;48.810;9.150;2023-02-11T10:30:25;30.20;1.00
774;DHT22;370;48.810;9.150;2023-02-11T10:32:58;31.10;1.00
774;DHT22;370;48.810;9.150;2023-02-11T10:35:26;32.20;1.00
774;DHT22;370;48.810;9.150;2023-02-11T10:37:53;32.00;1.00
774;DHT22;370;48.810;9.150;2023-02-11T10:40:23;32.90;1.00
774;DHT22;370;48.810;9.150;2023-02-11T10:42:51;33.90;1.00
774;DHT22;370;48.810;9.150;2023-02-11T10:45:24;32.70;1.00
774;DHT22;370;48.810;9.150;2023-02-11T10:47:52;32.70;1.00
774;DHT22;370;48.810;9.150;2023-02-11T10:50:22;31.50;1.00
774;DHT22;370;48.810;9.150;2023-02-11T10:52:51;31.60;1.00
774;DHT22;370;48.810;9.150;2023-02-11T10:55:19;32.20;1.00
774;DHT22;370;48.810;9.150;2023-02-11T10:57:53;32.90;1.00
774;DHT22;370;48.810;9.150;2023-02-11T11:00:29;33.00;1.00
774;DHT22;370;48.810;9.150;2023-02-11T11:02:59;33.50;1.00
774;DHT22;370;48.810;9.150;2023-02-11T11:05:32;33.50;1.00
774;DHT22;370;48.810;9.150;2023-02-11T11:08:03;33.30;1.00
774;DHT22;370;48.810;9.150;2023-02-11T11:10:36;33.40;1.00
774;DHT22;370;48.810;9.150;2023-02-11T11:13:23;32.90;1.00
774;DHT22;370;48.810;9.150;2023-02-11T11:16:14;31.80;1.00
774;DHT22;370;48.810;9.150;2023-02-11T11:18:43;31.30;1.00
774;DHT22;370;48.810;9.150;2023-02-11T11:21:13;31.60;1.00
774;DHT22;370;48.810;9.150;2023-02-11T11:23:47;32.20;1.00
774;DHT22;370;48.810;9.150;2023-02-11T11:26:15;32.40;1.00
774;DHT22;370;48.810;9.150;2023-02-11T11:28:51;32.50;1.00
774;DHT22;370;48.810;9.150;2023-02-11T11:31:21;32.70;1.00
774;DHT22;370;48.810;9.150;2023-02-11T11:33:50;33.10;1.00
774;DHT22;370;48.810;9.150;2023-02-11T11:36:21;33.60;1.00
774;DHT22;370;48.810;9.150;2023-02-11T11:38:52;33.50;1.00
774;DHT22;370;48.810;9.150;2023-02-11T11:41:24;33.80;1.00
774;DHT22;370;48.810;9.150;2023-02-11T11:44:00;33.10;1.00
774;DHT22;370;48.810;9.150;2023-02-11T11:46:29;33.60;1.00
774;DHT22;370;48.810;9.150;2023-02-11T11:49:12;35.40;1.00
774;DHT22;370;48.810;9.150;2023-02-11T11:51:46;35.00;1.00
774;DHT22;370;48.810;9.150;2023-02-11T11:54:18;35.80;1.00
774;DHT22;370;48.810;9.150;2023-02-11T11:56:50;36.30;1.00
774;DHT22;370;48.810;9.150;2023-02-11T11:59:18;36.70;1.00
774;DHT22;370;48.810;9.150;2023-02-11T12:02:02;37.50;1.00
774;DHT22;370;48.810;9.150;2023-02-11T12:04:41;38.10;1.00
774;DHT22;370;48.810;9.150;2023-02-11T12:07:24;36.00;1.00
774;DHT22;370;48.810;9.150;2023-02-11T12:10:15;35.10;1.00
774;DHT22;370;48.810;9.150;2023-02-11T12:12:49;33.40;1.00
774;DHT22;370;48.810;9.150;2023-02-11T12:15:27;31.20;1.00
774;DHT22;370;48.810;9.150;2023-02-11T12:18:10;30.10;1.00
774;DHT22;370;48.810;9.150;2023-02-11T12:20:54;29.60;1.00
774;DHT22;370;48.810;9.150;2023-02-11T12:23:36;28.90;1.00
774;DHT22;370;48.810;9.150;2023-02-11T12:26:12;29.40;1.00
774;DHT22;370;48.810;9.150;2023-02-11T12:28:43;29.60;1.00
774;DHT22;370;48.810;9.150;2023-02-11T12:31:26;29.40;1.00
774;DHT22;370;48.810;9.150;2023-02-11T12:37:03;25.00;1.00
774;DHT22;370;48.810;9.150;2023-02-11T12:39:41;23.30;1.00
774;DHT22;370;48.810;9.150;2023-02-11T12:45:40;21.80;1.00
774;DHT22;370;48.810;9.150;2023-02-11T12:48:21;20.80;1.00
774;DHT22;370;48.810;9.150;2023-02-11T12:50:55;21.30;1.00
774;DHT22;370;48.810;9.150;2023-02-11T12:53:46;21.30;1.00
774;DHT22;370;48.810;9.150;2023-02-11T12:56:22;20.90;1.00
774;DHT22;370;48.810;9.150;2023-02-11T12:58:54;20.90;1.00
774;DHT22;370;48.810;9.150;2023-02-11T13:01:25;20.40;1.00
774;DHT22;370;48.810;9.150;2023-02-11T13:03:55;19.80;1.00
774;DHT22;370;48.810;9.150;2023-02-11T13:06:26;19.30;1.00
774;DHT22;370;48.810;9.150;2023-02-11T13:08:58;18.90;1.00
774;DHT22;370;48.810;9.150;2023-02-11T13:11:28;18.70;1.00
774;DHT22;370;48.810;9.150;2023-02-11T13:14:02;18.20;1.00
774;DHT22;370;48.810;9.150;2023-02-11T13:16:34;17.50;1.00
774;DHT22;370;48.810;9.150;2023-02-11T13:19:09;16.70;1.00
774;DHT22;370;48.810;9.150;2023-02-11T13:21:51;16.00;1.00
774;DHT22;370;48.810;9.150;2023-02-11T13:24:25;15.10;1.00
774;DHT22;370;48.810;9.150;2023-02-11T13:27:03;14.80;1.00
774;DHT22;370;48.810;9.150;2023-02-11T13:29:41;14.60;1.00
774;DHT22;370;48.810;9.150;2023-02-11T13:32:13;14.20;1.00
774;DHT22;370;48.810;9.150;2023-02-11T13:34:55;13.80;1.00
774;DHT22;370;48.810;9.150;2023-02-11T13:37:24;13.20;1.00
774;DHT22;370;48.810;9.150;2023-02-11T13:39:56;12.70;1.00
774;DHT22;370;48.810;9.150;2023-02-11T13:42:24;12.20;1.00
774;DHT22;370;48.810;9.150;2023-02-11T13:44:52;11.80;1.00
774;DHT22;370;48.810;9.150;2023-02-11T13:47:26;11.60;1.00
774;DHT22;370;48.810;9.150;2023-02-11T13:49:54;11.40;1.00
774;DHT22;370;48.810;9.150;2023-02-11T13:52:24;11.10;1.00
774;DHT22;370;48.810;9.150;2023-02-11T13:54:54;10.90;1.00
774;DHT22;370;48.810;9.150;2023-02-11T13:57:32;10.60;1.00
774;DHT22;370;48.810;9.150;2023-02-11T14:00:05;10.50;1.00
774;DHT22;370;48.810;9.150;2023-02-11T14:02:35;10.50;1.00
774;DHT22;370;48.810;9.150;2023-02-11T14:05:30;10.40;1.00
774;DHT22;370;48.810;9.150;2023-02-11T14:08:18;10.40;1.00
774;DHT22;370;48.810;9.150;2023-02-11T14:11:04;10.30;1.00
774;DHT22;370;48.810;9.150;2023-02-11T14:14:13;10.20;1.00
774;DHT22;370;48.810;9.150;2023-02-11T14:19:50;10.20;1.00
774;DHT22;370;48.810;9.150;2023-02-11T14:22:21;10.30;1.00
774;DHT22;370;48.810;9.150;2023-02-11T14:24:55;10.30;1.00
774;DHT22;370;48.810;9.150;2023-02-11T14:27:27;10.20;1.00
774;DHT22;370;48.810;9.150;2023-02-11T14:30:12;10.00;1.00
774;DHT22;370;48.810;9.150;2023-02-11T14:32:51;9.90;1.00
774;DHT22;370;48.810;9.150;2023-02-11T14:35:29;9.80;1.00
774;DHT22;370;48.810;9.150;2023-02-11T14:38:01;9.70;1.00
774;DHT22;370;48.810;9.150;2023-02-11T14:40:33;9.70;1.00
774;DHT22;370;48.810;9.150;2023-02-11T14:43:08;9.70;1.00
774;DHT22;370;48.810;9.150;2023-02-11T14:45:37;9.70;1.00
774;DHT22;370;48.810;9.150;2023-02-11T14:48:07;9.70;1.00
774;DHT22;370;48.810;9.150;2023-02-11T14:50:43;9.60;1.00
774;DHT22;370;48.810;9.150;2023-02-11T14:53:15;9.60;1.00
774;DHT22;370;48.810;9.150;2023-02-11T14:55:44;9.70;1.00
774;DHT22;370;48.810;9.150;2023-02-11T14:58:15;9.70;1.00
774;DHT22;370;48.810;9.150;2023-02-11T15:00:48;9.90;1.00
774;DHT22;370;48.810;9.150;2023-02-11T15:03:33;10.00;1.00
774;DHT22;370;48.810;9.150;2023-02-11T15:06:04;10.00;1.00
774;DHT22;370;48.810;9.150;2023-02-11T15:08:34;9.90;1.00
774;DHT22;370;48.810;9.150;2023-02-11T15:11:08;10.00;1.00
774;DHT22;370;48.810;9.150;2023-02-11T15:13:35;10.00;1.00
774;DHT22;370;48.810;9.150;2023-02-11T15:16:05;9.90;1.00
774;DHT22;370;48.810;9.150;2023-02-11T15:18:36;10.00;1.00
774;DHT22;370;48.810;9.150;2023-02-11T15:21:06;10.00;1.00
774;DHT22;370;48.810;9.150;2023-02-11T15:23:34;9.90;1.00
774;DHT22;370;48.810;9.150;2023-02-11T15:26:01;9.90;1.00
774;DHT22;370;48.810;9.150;2023-02-11T15:28:32;9.70;1.00
774;DHT22;370;48.810;9.150;2023-02-11T15:31:01;9.50;1.00
774;DHT22;370;48.810;9.150;2023-02-11T15:33:28;9.30;1.00
774;DHT22;370;48.810;9.150;2023-02-11T15:35:57;9.20;1.00
774;DHT22;370;48.810;9.150;2023-02-11T15:38:25;9.20;1.00
774;DHT22;370;48.810;9.150;2023-02-11T15:40:55;9.00;1.00
774;DHT22;370;48.810;9.150;2023-02-11T15:43:23;8.90;1.00
774;DHT22;370;48.810;9.150;2023-02-11T15:45:57;8.90;1.00
774;DHT22;370;48.810;9.150;2023-02-11T15:48:33;8.90;1.00
774;DHT22;370;48.810;9.150;2023-02-11T15:51:02;9.00;1.00
774;DHT22;370;48.810;9.150;2023-02-11T15:53:36;8.80;1.00
774;DHT22;370;48.810;9.150;2023-02-11T15:56:09;8.80;1.00
774;DHT22;370;48.810;9.150;2023-02-11T15:58:38;8.80;1.00
774;DHT22;370;48.810;9.150;2023-02-11T16:01:06;8.80;1.00
774;DHT22;370;48.810;9.150;2023-02-11T16:03:34;8.80;1.00
774;DHT22;370;48.810;9.150;2023-02-11T16:06:18;8.70;1.00
774;DHT22;370;48.810;9.150;2023-02-11T16:09:00;8.70;1.00
774;DHT22;370;48.810;9.150;2023-02-11T16:11:28;8.60;1.00
774;DHT22;370;48.810;9.150;2023-02-11T16:13:56;8.50;1.00
774;DHT22;370;48.810;9.150;2023-02-11T16:16:26;8.50;1.00
774;DHT22;370;48.810;9.150;2023-02-11T16:18:55;8.50;1.00
774;DHT22;370;48.810;9.150;2023-02-11T16:21:28;8.50;1.00
774;DHT22;370;48.810;9.150;2023-02-11T16:23:58;8.60;1.00
774;DHT22;370;48.810;9.150;2023-02-11T16:26:29;8.60;1.00
774;DHT22;370;48.810;9.150;2023-02-11T16:29:05;8.60;1.00
774;DHT22;370;48.810;9.150;2023-02-11T16:31:33;8.60;1.00
774;DHT22;370;48.810;9.150;2023-02-11T16:34:01;8.50;1.00
774;DHT22;370;48.810;9.150;2023-02-11T16:36:28;8.60;1.00
774;DHT22;370;48.810;9.150;2023-02-11T16:38:55;8.60;1.00
774;DHT22;370;48.810;9.150;2023-02-11T16:41:23;8.50;1.00
774;DHT22;370;48.810;9.150;2023-02-11T16:43:49;8.50;1.00
774;DHT22;370;48.810;9.150;2023-02-11T16:46:16;8.40;1.00
774;DHT22;370;48.810;9.150;2023-02-11T16:48:44;8.30;1.00
774;DHT22;370;48.810;9.150;2023-02-11T16:51:11;8.40;1.00
774;DHT22;370;48.810;9.150;2023-02-11T16:53:38;8.50;1.00
774;DHT22;370;48.810;9.150;2023-02-11T16:56:05;8.40;1.00
774;DHT22;370;48.810;9.150;2023-02-11T16:58:33;8.40;1.00
774;DHT22;370;48.810;9.150;2023-02-11T17:01:00;8.30;1.00
774;DHT22;370;48.810;9.150;2023-02-11T17:03:27;8.30;1.00
774;DHT22;370;48.810;9.150;2023-02-11T17:05:54;8.30;1.00
774;DHT22;370;48.810;9.150;2023-02-11T17:08:21;8.30;1.00
774;DHT22;370;48.810;9.150;2023-02-11T17:10:48;8.30;1.00
774;DHT22;370;48.810;9.150;2023-02-11T17:13:14;8.30;1.00
774;DHT22;370;48.810;9.150;2023-02-11T17:15:42;8.20;1.00
774;DHT22;370;48.810;9.150;2023-02-11T17:18:11;8.20;1.00
774;DHT22;370;48.810;9.150;2023-02-11T17:20:39;8.20;1.00
774;DHT22;370;48.810;9.150;2023-02-11T17:23:06;8.20;1.00
774;DHT22;370;48.810;9.150;2023-02-11T17:25:32;8.30;1.00
774;DHT22;370;48.810;9.150;2023-02-11T17:28:01;8.30;1.00
774;DHT22;370;48.810;9.150;2023-02-11T17:30:28;8.20;1.00
774;DHT22;370;48.810;9.150;2023-02-11T17:32:56;8.20;1.00